Barrow County Airport


Codes: KWDR/WDR
Name: Barrow County Airport
City: Winder
Country: United States
Elevation: 943 ft.
Website:
Wikipedia:

Photos at Barrow County Airport


   Photos courtesy of SpottingLog. You can add your own sightings and photos by signing up for a free trial today.



No photos found.

Weather at Barrow County Airport


Time (UTC)DescriptionTempratureWindCloud coverageVisibilityPressureHumidity
19-Apr-2024 06:00Light Rain20°C4 mph, W33%10000m1017hPa81%
19-Apr-2024 09:00Light Rain19°C0 mph, SW67%10000m1016hPa88%
19-Apr-2024 12:00Light Rain19°C2 mph, SW99%10000m1017hPa92%
19-Apr-2024 15:00Broken Clouds24°C4 mph, SW72%10000m1017hPa64%
19-Apr-2024 18:00Light Rain27°C7 mph, W55%10000m1015hPa55%
19-Apr-2024 21:00Scattered Clouds29°C9 mph, W40%10000m1013hPa47%
20-Apr-2024 00:00Light Rain21°C7 mph, NW66%10000m1015hPa85%
20-Apr-2024 03:00Light Rain19°C7 mph, NW45%10000m1016hPa95%
20-Apr-2024 06:00Broken Clouds18°C4 mph, NW73%10000m1016hPa98%
20-Apr-2024 09:00Overcast Clouds17°C4 mph, NW100%10000m1016hPa99%
20-Apr-2024 12:00Overcast Clouds16°C7 mph, NW99%10000m1018hPa94%
20-Apr-2024 15:00Broken Clouds22°C7 mph, NW65%10000m1018hPa61%
20-Apr-2024 18:00Scattered Clouds26°C7 mph, NW42%10000m1017hPa48%
20-Apr-2024 21:00Scattered Clouds25°C9 mph, W42%10000m1015hPa44%
21-Apr-2024 00:00Broken Clouds18°C9 mph, NW63%10000m1017hPa47%
21-Apr-2024 03:00Overcast Clouds15°C7 mph, NW96%10000m1018hPa50%
21-Apr-2024 06:00Overcast Clouds14°C4 mph, NW98%10000m1017hPa61%
21-Apr-2024 09:00Overcast Clouds15°C4 mph, N100%10000m1017hPa60%
21-Apr-2024 12:00Light Rain13°C7 mph, NE100%10000m1018hPa70%
21-Apr-2024 15:00Overcast Clouds13°C9 mph, NE100%10000m1018hPa68%
21-Apr-2024 18:00Light Rain12°C4 mph, NE100%5549m1019hPa85%
21-Apr-2024 21:00Moderate Rain10°C7 mph, NE100%10000m1017hPa97%
22-Apr-2024 00:00Light Rain10°C2 mph, NE100%10000m1018hPa97%
22-Apr-2024 03:00Light Rain10°C2 mph, NE100%10000m1018hPa97%
22-Apr-2024 06:00Overcast Clouds10°C2 mph, N100%10000m1017hPa97%
22-Apr-2024 09:00Overcast Clouds10°C2 mph, NW99%10000m1016hPa96%
22-Apr-2024 12:00Overcast Clouds10°C2 mph, NW99%10000m1017hPa95%
22-Apr-2024 15:00Light Rain10°C0 mph, NW100%10000m1019hPa96%
22-Apr-2024 18:00Light Rain11°C4 mph, E100%10000m1019hPa89%
22-Apr-2024 21:00Overcast Clouds11°C4 mph, E100%10000m1018hPa82%
23-Apr-2024 00:00Broken Clouds9°C2 mph, E71%10000m1019hPa88%
23-Apr-2024 03:00Clear Sky7°C2 mph, SE0%10000m1020hPa96%
23-Apr-2024 06:00Clear Sky6°C2 mph, SW0%10000m1020hPa97%
23-Apr-2024 09:00Clear Sky5°C0 mph, NW0%10000m1020hPa96%
23-Apr-2024 12:00Clear Sky7°C0 mph, N0%10000m1022hPa91%
23-Apr-2024 15:00Clear Sky16°C4 mph, S0%10000m1021hPa57%
23-Apr-2024 18:00Clear Sky20°C7 mph, S1%10000m1019hPa41%
23-Apr-2024 21:00Clear Sky21°C7 mph, SW0%10000m1017hPa39%
24-Apr-2024 00:00Clear Sky15°C7 mph, S0%10000m1017hPa70%
24-Apr-2024 03:00Clear Sky11°C7 mph, SW1%10000m1018hPa78%